Terminal Aerodrome Forecast
Issued by NWS Twin Cities, MN

Home | Current Version | Previous Version | Text Only | Print | Product List | Glossary On
Versions: 1 2 3 4 5 6 7 8 9 10 11 12 13 14 15 16 17 18
000
FTUS43 KMPX 071720
TAFEAU
TAF
KEAU 071720Z 0718/0818 36010G16KT P6SM BKN050
     FM072000 36007KT P6SM SCT050
     FM080000 05002KT P6SM SKC
     FM081500 17005KT P6SM SCT050 SCT250=

USA.gov is the U.S. government's official web portal to all federal, state and local government web resources and services.